Pagrindinis puslapis
METAR-TAF:

METAR-TAF

Oro uostai :

Vandenberg Airport

Tampa, Florida, Jungtinės Amerikos Valstijos

platuma: 28-00-50N, ilguma: 082-20-43W, Aukštis: 7 m

Dabartinis oras

Ataskaita buvo paskelbta 15 minutes, ne 17:35 UTC
Vėjas 4 kt iš Šiaurės
Temperatūra 30°C
Drėgmė 62%
Slėgis 1014 hPa
Matomumas: 16.1 km
Su prošvaistėmis ne aukštis 3800 ft

METAR: KVDF 171735Z AUTO 35004KT 10SM BKN038 30/22 A2993 RMK AO2

Laikas: 13:50 (17:50 UTC)


TAF: trūkstamas

Orai ataskaitas ir orų prognozės (METAR, TAF).

turimą stotys yra geltonos ir raudonos taškus žemėlapyje.

Perkelti pele per norėdami pamatyti stoties vardą.

Tada spustelėkite, norėdami matyti oro stebėjimo ir prognozės.

Norėdami pakeisti žemėlapį: spustelėkite ant žalios mygtukų su juodo kryžiaus žemyn,; žalią mygtuką su brūkšneliu, jei norite nutolinti; arba žalių rodyklių gretimoms žemėlapius.


METAR-TAF: